createdAt,value
2018-11-20T00:01:00.631Z,1020.9
2018-11-20T00:02:09.695Z,1020.92
2018-11-20T00:03:19.853Z,1020.85
2018-11-20T00:04:29.739Z,1020.84
2018-11-20T00:05:39.629Z,1020.77
2018-11-20T00:06:49.513Z,1020.81
2018-11-20T00:07:59.714Z,1020.74
2018-11-20T00:09:09.378Z,1020.71
2018-11-20T00:10:19.269Z,1020.77
2018-11-20T00:11:28.881Z,1020.76
2018-11-20T00:12:38.764Z,1020.72
2018-11-20T00:13:48.456Z,1020.78
2018-11-20T00:14:57.791Z,1020.73
2018-11-20T00:16:07.680Z,1020.71
2018-11-20T00:17:17.290Z,1020.75
2018-11-20T00:18:26.904Z,1020.71
2018-11-20T00:19:36.787Z,1020.71
2018-11-20T00:20:46.672Z,1020.64
2018-11-20T00:21:56.553Z,1020.75
2018-11-20T00:23:05.894Z,1020.67
2018-11-20T00:24:15.497Z,1020.68
2018-11-20T00:25:25.169Z,1020.64
2018-11-20T00:26:35.328Z,1020.66
2018-11-20T00:27:45.486Z,1020.62
2018-11-20T00:28:55.641Z,1020.65
2018-11-20T00:30:05.524Z,1020.68
2018-11-20T00:31:15.133Z,1020.65
2018-11-20T00:32:24.756Z,1020.64
2018-11-20T00:33:34.650Z,1020.59
2018-11-20T00:34:43.985Z,1020.56
2018-11-20T00:35:53.880Z,1020.52
2018-11-20T00:37:04.042Z,1020.53
2018-11-20T00:38:14.201Z,1020.59
2018-11-20T00:39:23.816Z,1020.58
2018-11-20T00:40:33.960Z,1020.48
2018-11-20T00:41:43.019Z,1020.51
2018-11-20T00:42:52.901Z,1020.54
2018-11-20T00:44:02.835Z,1020.49
2018-11-20T00:45:12.722Z,1020.49
2018-11-20T00:46:22.878Z,1020.51
2018-11-20T00:47:32.211Z,1020.48
2018-11-20T00:48:42.086Z,1020.47
2018-11-20T00:49:51.975Z,1020.46
2018-11-20T00:51:01.858Z,1020.42
2018-11-20T00:52:11.743Z,1020.37
2018-11-20T00:53:21.624Z,1020.37
2018-11-20T00:54:31.547Z,1020.34
2018-11-20T00:55:41.423Z,1020.35
2018-11-20T00:56:51.326Z,1020.4
2018-11-20T00:58:01.493Z,1020.29
2018-11-20T00:59:11.106Z,1020.26
2018-11-20T01:00:21.264Z,1020.3
2018-11-20T01:01:31.154Z,1020.22
2018-11-20T01:02:41.045Z,1020.28
2018-11-20T01:03:50.933Z,1020.26
2018-11-20T01:05:00.272Z,1020.34
2018-11-20T01:06:10.983Z,1020.35
2018-11-20T01:07:20.585Z,1020.23
2018-11-20T01:08:29.923Z,1020.27
2018-11-20T01:09:40.078Z,1020.26
2018-11-20T01:10:49.410Z,1020.24
2018-11-20T01:11:59.290Z,1020.2
2018-11-20T01:13:09.179Z,1020.21
2018-11-20T01:14:18.516Z,1020.26
2018-11-20T01:15:28.122Z,1020.25
2018-11-20T01:16:38.277Z,1020.32
2018-11-20T01:17:47.938Z,1020.24
2018-11-20T01:18:57.545Z,1020.3
2018-11-20T01:20:06.608Z,1020.27
2018-11-20T01:21:16.492Z,1020.23
2018-11-20T01:22:26.376Z,1020.19
2018-11-20T01:23:36.294Z,1020.17
2018-11-20T01:24:46.184Z,1020.22
2018-11-20T01:25:55.809Z,1020.14
2018-11-20T01:27:05.690Z,1020.16
2018-11-20T01:28:15.577Z,1020.13
2018-11-20T01:29:24.696Z,1020.07
2018-11-20T01:30:34.586Z,1020.16
2018-11-20T01:31:44.190Z,1020.11
2018-11-20T01:32:53.529Z,1020.1
2018-11-20T01:34:03.407Z,1020.14
2018-11-20T01:35:13.019Z,1020.08
2018-11-20T01:36:22.913Z,1020.09
2018-11-20T01:37:33.071Z,1020.07
2018-11-20T01:38:42.950Z,1020.1
2018-11-20T01:39:52.843Z,1020.03
2018-11-20T01:41:03.043Z,1020.06
2018-11-20T01:42:12.416Z,1020.05
2018-11-20T01:43:22.577Z,1020.15
2018-11-20T01:44:32.740Z,1019.98
2018-11-20T01:45:42.622Z,1019.94
2018-11-20T01:46:52.505Z,1019.99
2018-11-20T01:48:02.659Z,1019.93
2018-11-20T01:49:12.263Z,1019.9
2018-11-20T01:50:22.153Z,1019.86
2018-11-20T01:51:32.160Z,1019.81
2018-11-20T01:52:42.504Z,1019.81
2018-11-20T01:53:52.379Z,1019.81
2018-11-20T01:55:01.997Z,1019.82
2018-11-20T01:56:11.329Z,1019.77
2018-11-20T01:57:21.216Z,1019.81
2018-11-20T01:58:30.873Z,1019.79
2018-11-20T01:59:40.752Z,1019.78
2018-11-20T02:00:50.640Z,1019.74
2018-11-20T02:02:00.538Z,1019.66
2018-11-20T02:03:09.874Z,1019.63
2018-11-20T02:04:20.031Z,1019.61
2018-11-20T02:05:29.914Z,1019.67
2018-11-20T02:06:39.818Z,1019.54
2018-11-20T02:07:49.703Z,1019.53
2018-11-20T02:08:59.320Z,1019.51
2018-11-20T02:10:08.653Z,1019.5
2018-11-20T02:11:18.820Z,1019.47
2018-11-20T02:12:28.707Z,1019.46
2018-11-20T02:13:37.769Z,1019.46
2018-11-20T02:14:47.937Z,1019.49
2018-11-20T02:15:58.101Z,1019.48
2018-11-20T02:17:07.709Z,1019.43
2018-11-20T02:18:17.866Z,1019.41
2018-11-20T02:19:27.474Z,1019.44
2018-11-20T02:20:37.635Z,1019.45
2018-11-20T02:21:47.293Z,1019.45
2018-11-20T02:22:57.453Z,1019.41
2018-11-20T02:24:07.072Z,1019.39
2018-11-20T02:25:16.679Z,1019.35
2018-11-20T02:26:26.294Z,1019.42
2018-11-20T02:27:36.177Z,1019.33
2018-11-20T02:28:46.332Z,1019.3
2018-11-20T02:29:56.215Z,1019.29
2018-11-20T02:31:06.104Z,1019.34
2018-11-20T02:32:15.713Z,1019.24
2018-11-20T02:33:25.329Z,1019.29
2018-11-20T02:34:35.226Z,1019.2
2018-11-20T02:35:45.111Z,1019.15
2018-11-20T02:36:54.719Z,1019.21
2018-11-20T02:38:04.606Z,1019.11
2018-11-20T02:39:14.492Z,1019.13
2018-11-20T02:40:24.105Z,1019.06
2018-11-20T02:41:33.994Z,1018.97
2018-11-20T02:42:43.602Z,1019.06
2018-11-20T02:43:53.759Z,1018.97
2018-11-20T02:45:03.684Z,1019
2018-11-20T02:46:13.836Z,1018.98
2018-11-20T02:47:23.721Z,1018.89
2018-11-20T02:48:33.882Z,1018.93
2018-11-20T02:49:43.760Z,1018.86
2018-11-20T02:50:53.377Z,1018.79
2018-11-20T02:52:03.922Z,1018.88
2018-11-20T02:53:13.798Z,1018.84
2018-11-20T02:54:23.423Z,1018.79
2018-11-20T02:55:33.586Z,1018.79
2018-11-20T02:56:43.474Z,1018.83
2018-11-20T02:57:53.369Z,1018.85
2018-11-20T02:59:02.977Z,1018.81
2018-11-20T03:00:13.052Z,1018.83
2018-11-20T03:01:22.931Z,1018.76
2018-11-20T03:02:33.094Z,1018.69
2018-11-20T03:03:42.819Z,1018.85
2018-11-20T03:04:52.796Z,1018.73
2018-11-20T03:06:02.969Z,1018.65
2018-11-20T03:07:13.162Z,1018.67
2018-11-20T03:08:23.045Z,1018.69
2018-11-20T03:09:33.253Z,1018.65
2018-11-20T03:10:42.591Z,1018.59
2018-11-20T03:11:52.470Z,1018.56
2018-11-20T03:13:02.083Z,1018.53
2018-11-20T03:14:11.153Z,1018.47
2018-11-20T03:15:21.037Z,1018.52
2018-11-20T03:16:30.922Z,1018.44
2018-11-20T03:17:40.801Z,1018.51
2018-11-20T03:18:50.413Z,1018.46
2018-11-20T03:20:00.582Z,1018.47
2018-11-20T03:21:09.918Z,1018.39
2018-11-20T03:22:20.086Z,1018.39
2018-11-20T03:23:29.703Z,1018.31
2018-11-20T03:24:39.317Z,1018.37
2018-11-20T03:25:48.936Z,1018.32
2018-11-20T03:26:58.969Z,1018.36
2018-11-20T03:28:10.079Z,1018.25
2018-11-20T03:29:19.966Z,1018.23
2018-11-20T03:30:30.123Z,1018.24
2018-11-20T03:31:39.738Z,1018.18
2018-11-20T03:32:49.904Z,1018.2
2018-11-20T03:33:59.515Z,1018.15
2018-11-20T03:35:09.138Z,1018.2
2018-11-20T03:36:18.546Z,1018.22
2018-11-20T03:37:28.431Z,1018.15
2018-11-20T03:38:38.312Z,1018.17
2018-11-20T03:39:48.467Z,1018.16
2018-11-20T03:40:58.353Z,1018.18
2018-11-20T03:42:08.235Z,1018.12
2018-11-20T03:43:18.392Z,1018.19
2018-11-20T03:44:27.726Z,1018.12
2018-11-20T03:45:37.066Z,1018.15
2018-11-20T03:46:46.953Z,1018.11
2018-11-20T03:47:56.909Z,1018.09
2018-11-20T03:49:07.627Z,1018.12
2018-11-20T03:50:17.516Z,1018.1
2018-11-20T03:51:26.574Z,1018.12
2018-11-20T03:52:36.731Z,1018.1
2018-11-20T03:53:46.669Z,1018.07
2018-11-20T03:54:56.554Z,1018.05
2018-11-20T03:56:06.713Z,1018.07
2018-11-20T03:57:16.326Z,1018.05
2018-11-20T03:58:26.483Z,1017.97
2018-11-20T03:59:35.815Z,1018.01
2018-11-20T04:00:45.708Z,1018.04
2018-11-20T04:01:55.603Z,1018.01
2018-11-20T04:03:05.214Z,1018
2018-11-20T04:04:15.095Z,1018.01
2018-11-20T04:05:24.711Z,1018.05
2018-11-20T04:06:34.872Z,1018.04
2018-11-20T04:07:45.030Z,1018.07
2018-11-20T04:08:54.908Z,1018.08
2018-11-20T04:10:04.525Z,1018.01
2018-11-20T04:11:13.865Z,1018.02
2018-11-20T04:12:24.016Z,1017.99
2018-11-20T04:13:33.625Z,1017.97
2018-11-20T04:14:43.508Z,1017.94
2018-11-20T04:15:53.675Z,1018.02
2018-11-20T04:17:03.567Z,1017.98
2018-11-20T04:18:13.444Z,1017.95
2018-11-20T04:19:22.508Z,1017.97
2018-11-20T04:20:31.846Z,1018.01
2018-11-20T04:21:41.724Z,1017.99
2018-11-20T04:22:51.329Z,1017.99
2018-11-20T04:24:01.493Z,1017.83
2018-11-20T04:25:11.095Z,1017.84
2018-11-20T04:26:20.998Z,1017.94
2018-11-20T04:27:30.608Z,1017.87
2018-11-20T04:28:40.494Z,1017.91
2018-11-20T04:29:50.101Z,1017.91
2018-11-20T04:31:00.264Z,1017.9
2018-11-20T04:32:09.593Z,1017.91
2018-11-20T04:33:19.482Z,1017.88
2018-11-20T04:34:29.641Z,1017.91
2018-11-20T04:35:39.253Z,1017.87
2018-11-20T04:36:49.137Z,1017.87
2018-11-20T04:37:59.018Z,1017.8
2018-11-20T04:39:08.084Z,1017.81
2018-11-20T04:40:17.967Z,1017.86
2018-11-20T04:41:28.127Z,1017.88
2018-11-20T04:42:38.009Z,1017.88
2018-11-20T04:43:47.341Z,1017.88
2018-11-20T04:44:56.672Z,1017.83
2018-11-20T04:46:06.006Z,1017.86
2018-11-20T04:47:15.947Z,1017.88
2018-11-20T04:48:25.560Z,1017.91
2018-11-20T04:49:35.167Z,1017.87
2018-11-20T04:50:45.311Z,1017.86
2018-11-20T04:51:55.193Z,1017.86
2018-11-20T04:53:04.579Z,1017.85
2018-11-20T04:54:14.754Z,1017.92
2018-11-20T04:55:24.364Z,1017.96
2018-11-20T04:56:34.255Z,1017.91
2018-11-20T04:57:44.480Z,1017.93
2018-11-20T04:58:54.970Z,1017.94
2018-11-20T05:00:05.138Z,1017.89
2018-11-20T05:01:14.745Z,1017.78
2018-11-20T05:02:24.627Z,1017.85
2018-11-20T05:03:34.506Z,1017.86
2018-11-20T05:04:44.389Z,1017.83
2018-11-20T05:05:54.545Z,1017.76
2018-11-20T05:07:04.440Z,1017.76
2018-11-20T05:08:14.328Z,1017.88
2018-11-20T05:09:23.931Z,1017.89
2018-11-20T05:10:33.807Z,1017.85
2018-11-20T05:11:43.686Z,1017.85
2018-11-20T05:12:53.571Z,1017.9
2018-11-20T05:14:03.822Z,1017.95
2018-11-20T05:15:13.165Z,1017.95
2018-11-20T05:16:22.776Z,1017.83
2018-11-20T05:17:32.653Z,1017.94
2018-11-20T05:18:42.539Z,1018
2018-11-20T05:19:52.419Z,1018.03
2018-11-20T05:21:02.047Z,1017.99
2018-11-20T05:22:11.439Z,1018
2018-11-20T05:23:21.319Z,1017.98
2018-11-20T05:24:30.922Z,1017.99
2018-11-20T05:25:40.531Z,1018.04
2018-11-20T05:26:50.680Z,1018.06
2018-11-20T05:28:00.905Z,1018.08
2018-11-20T05:29:11.470Z,1018.09
2018-11-20T05:30:21.359Z,1018.13
2018-11-20T05:31:31.242Z,1018.11
2018-11-20T05:32:40.853Z,1018.13
2018-11-20T05:33:51.005Z,1018.19
2018-11-20T05:35:00.887Z,1018.21
2018-11-20T05:36:10.825Z,1018.18
2018-11-20T05:37:20.716Z,1018.17
2018-11-20T05:38:30.595Z,1018.19
2018-11-20T05:39:40.536Z,1018.26
2018-11-20T05:40:50.144Z,1018.24
2018-11-20T05:42:00.031Z,1018.26
2018-11-20T05:43:09.641Z,1018.22
2018-11-20T05:44:19.522Z,1018.26
2018-11-20T05:45:28.864Z,1018.27
2018-11-20T05:46:38.216Z,1018.33
2018-11-20T05:47:47.969Z,1018.32
2018-11-20T05:48:57.862Z,1018.29
2018-11-20T05:50:08.026Z,1018.31
2018-11-20T05:51:17.911Z,1018.22
2018-11-20T05:52:27.515Z,1018.31
2018-11-20T05:53:37.126Z,1018.32
2018-11-20T05:54:47.286Z,1018.36
2018-11-20T05:55:57.181Z,1018.26
2018-11-20T05:57:07.070Z,1018.3
2018-11-20T05:58:16.408Z,1018.29
2018-11-20T05:59:26.571Z,1018.3
2018-11-20T06:00:35.922Z,1018.31
2018-11-20T06:01:45.530Z,1018.34
2018-11-20T06:02:55.676Z,1018.5
2018-11-20T06:04:05.561Z,1018.36
2018-11-20T06:05:15.715Z,1018.34
2018-11-20T06:06:25.055Z,1018.34
2018-11-20T06:07:34.944Z,1018.4
2018-11-20T06:08:44.279Z,1018.34
2018-11-20T06:09:54.216Z,1018.39
2018-11-20T06:11:03.823Z,1018.31
2018-11-20T06:12:13.707Z,1018.36
2018-11-20T06:13:23.044Z,1018.32
2018-11-20T06:14:32.656Z,1018.38
2018-11-20T06:15:42.262Z,1018.3
2018-11-20T06:16:52.135Z,1018.5
2018-11-20T06:18:02.314Z,1018.5
2018-11-20T06:19:11.927Z,1018.48
2018-11-20T06:20:21.263Z,1018.49
2018-11-20T06:21:31.153Z,1018.43
2018-11-20T06:22:40.765Z,1018.52
2018-11-20T06:23:50.921Z,1018.54
2018-11-20T06:25:00.844Z,1018.42
2018-11-20T06:26:10.726Z,1018.46
2018-11-20T06:27:20.619Z,1018.38
2018-11-20T06:28:30.264Z,1018.41
2018-11-20T06:29:40.381Z,1018.41
2018-11-20T06:30:49.715Z,1018.41
2018-11-20T06:31:59.329Z,1018.45
2018-11-20T06:33:09.217Z,1018.31
2018-11-20T06:34:18.578Z,1018.44
2018-11-20T06:35:28.792Z,1018.4
2018-11-20T06:36:38.960Z,1018.4
2018-11-20T06:37:49.119Z,1018.47
2018-11-20T06:38:58.733Z,1018.48
2018-11-20T06:40:08.354Z,1018.39
2018-11-20T06:41:18.056Z,1018.48
2018-11-20T06:42:28.591Z,1018.44
2018-11-20T06:43:38.467Z,1018.42
2018-11-20T06:44:47.519Z,1018.45
2018-11-20T06:45:57.674Z,1018.48
2018-11-20T06:47:07.576Z,1018.48
2018-11-20T06:48:17.994Z,1018.49
2018-11-20T06:49:28.157Z,1018.42
2018-11-20T06:50:38.319Z,1018.39
2018-11-20T06:51:48.482Z,1018.54
2018-11-20T06:52:58.503Z,1018.57
2018-11-20T06:54:09.303Z,1018.51
2018-11-20T06:55:19.465Z,1018.59
2018-11-20T06:56:29.656Z,1018.58
2018-11-20T06:57:39.545Z,1018.54
2018-11-20T06:58:49.707Z,1018.58
2018-11-20T06:59:59.871Z,1018.43
2018-11-20T07:01:10.024Z,1018.48
2018-11-20T07:02:19.964Z,1018.45
2018-11-20T07:03:29.304Z,1018.56
2018-11-20T07:04:39.494Z,1018.52
2018-11-20T07:05:49.655Z,1018.52
2018-11-20T07:06:59.296Z,1018.48
2018-11-20T07:08:10.142Z,1018.49
2018-11-20T07:09:20.339Z,1018.45
2018-11-20T07:10:29.671Z,1018.4
2018-11-20T07:11:39.571Z,1018.39
2018-11-20T07:12:49.176Z,1018.39
2018-11-20T07:13:59.334Z,1018.42
2018-11-20T07:15:09.305Z,1018.4
2018-11-20T07:16:19.928Z,1018.47
2018-11-20T07:17:30.363Z,1018.34
2018-11-20T07:18:40.251Z,1018.4
2018-11-20T07:19:50.414Z,1018.41
2018-11-20T07:21:00.597Z,1018.42
2018-11-20T07:22:10.215Z,1018.38
2018-11-20T07:23:19.829Z,1018.3
2018-11-20T07:24:29.726Z,1018.22
2018-11-20T07:25:39.110Z,1018.31
2018-11-20T07:26:48.999Z,1018.27
2018-11-20T07:27:58.881Z,1018.3
2018-11-20T07:29:08.776Z,1018.29
2018-11-20T07:30:18.554Z,1018.27
2018-11-20T07:31:28.854Z,1018.29
2018-11-20T07:32:38.693Z,1018.16
2018-11-20T07:33:48.311Z,1018.28
2018-11-20T07:34:58.290Z,1018.18
2018-11-20T07:36:08.177Z,1018.14
2018-11-20T07:37:19.038Z,1018.19
2018-11-20T07:38:30.426Z,1018.16
2018-11-20T07:39:40.814Z,1018.11
2018-11-20T07:40:50.705Z,1018.15
2018-11-20T07:42:00.595Z,1018.09
2018-11-20T07:43:10.598Z,1018.13
2018-11-20T07:44:21.209Z,1018.11
2018-11-20T07:45:31.286Z,1018.05
2018-11-20T07:46:41.271Z,1018.03
2018-11-20T07:47:50.614Z,1018.02
2018-11-20T07:49:00.507Z,1018.07
2018-11-20T07:50:10.388Z,1018.01
2018-11-20T07:51:20.018Z,1018.06
2018-11-20T07:52:29.954Z,1018.08
2018-11-20T07:53:39.566Z,1018.04
2018-11-20T07:54:49.449Z,1018.07
2018-11-20T07:55:58.853Z,1018.08
2018-11-20T07:57:08.710Z,1018.11
2018-11-20T07:58:18.320Z,1018.19
2018-11-20T07:59:28.206Z,1018.12
2018-11-20T08:00:37.821Z,1018.03
2018-11-20T08:01:47.720Z,1017.89
2018-11-20T08:02:57.378Z,1017.96
2018-11-20T08:04:06.988Z,1018.03
2018-11-20T08:05:17.149Z,1018.06
2018-11-20T08:06:27.049Z,1018.03
2018-11-20T08:07:36.666Z,1018.09
2018-11-20T08:08:45.999Z,1017.94
2018-11-20T08:09:55.883Z,1018.1
2018-11-20T08:11:05.775Z,1018.06
2018-11-20T08:12:15.104Z,1018.07
2018-11-20T08:13:24.720Z,1018
2018-11-20T08:14:34.329Z,1017.99
2018-11-20T08:15:44.249Z,1018
2018-11-20T08:16:54.361Z,1017.99
2018-11-20T08:18:03.973Z,1017.99
2018-11-20T08:19:13.580Z,1018.04
2018-11-20T08:20:23.757Z,1018.02
2018-11-20T08:21:33.910Z,1018.07
2018-11-20T08:22:43.796Z,1018
2018-11-20T08:23:53.682Z,1018.07
2018-11-20T08:25:03.848Z,1017.87
2018-11-20T08:26:14.149Z,1017.9
2018-11-20T08:27:24.874Z,1017.85
2018-11-20T08:28:34.764Z,1017.8
2018-11-20T08:29:44.753Z,1017.77
2018-11-20T08:30:54.419Z,1017.73
2018-11-20T08:32:04.910Z,1017.65
2018-11-20T08:33:14.517Z,1017.64
2018-11-20T08:34:24.797Z,1017.65
2018-11-20T08:35:34.595Z,1017.59
2018-11-20T08:36:44.212Z,1017.69
2018-11-20T08:37:54.101Z,1017.66
2018-11-20T08:39:03.997Z,1017.74
2018-11-20T08:40:14.201Z,1017.78
2018-11-20T08:41:24.366Z,1017.68
2018-11-20T08:42:33.704Z,1017.76
2018-11-20T08:43:43.875Z,1017.72
2018-11-20T08:44:53.807Z,1017.68
2018-11-20T08:46:03.147Z,1017.73
2018-11-20T08:47:13.030Z,1017.74
2018-11-20T08:48:23.307Z,1017.71
2018-11-20T08:49:33.727Z,1017.76
2018-11-20T08:50:43.937Z,1017.71
2018-11-20T08:51:52.999Z,1017.79
2018-11-20T08:53:03.160Z,1017.81
2018-11-20T08:54:12.784Z,1017.81
2018-11-20T08:55:22.670Z,1017.67
2018-11-20T08:56:32.557Z,1017.66
2018-11-20T08:57:42.162Z,1017.59
2018-11-20T08:58:52.044Z,1017.57
2018-11-20T09:00:01.933Z,1017.57
2018-11-20T09:01:11.825Z,1017.56
2018-11-20T09:02:21.846Z,1017.63
2018-11-20T09:03:32.674Z,1017.63
2018-11-20T09:04:42.290Z,1017.77
2018-11-20T09:05:51.907Z,1017.65
2018-11-20T09:07:01.789Z,1017.72
2018-11-20T09:08:11.429Z,1017.66
2018-11-20T09:09:21.051Z,1017.67
2018-11-20T09:10:30.509Z,1017.65
2018-11-20T09:11:41.407Z,1017.52
2018-11-20T09:12:50.469Z,1017.48
2018-11-20T09:14:00.365Z,1017.54
2018-11-20T09:15:09.976Z,1017.51
2018-11-20T09:16:19.310Z,1017.52
2018-11-20T09:17:29.462Z,1017.52
2018-11-20T09:18:39.626Z,1017.61
2018-11-20T09:19:49.510Z,1017.55
2018-11-20T09:20:58.877Z,1017.52
2018-11-20T09:22:08.727Z,1017.49
2018-11-20T09:23:18.073Z,1017.57
2018-11-20T09:24:28.230Z,1017.55
2018-11-20T09:25:37.851Z,1017.56
2018-11-20T09:26:48.571Z,1017.62
2018-11-20T09:27:58.808Z,1017.56
2018-11-20T09:29:09.615Z,1017.5
2018-11-20T09:30:19.503Z,1017.45
2018-11-20T09:31:29.116Z,1017.44
2018-11-20T09:32:39.007Z,1017.46
2018-11-20T09:33:48.888Z,1017.42
2018-11-20T09:34:58.861Z,1017.43
2018-11-20T09:36:10.160Z,1017.43
2018-11-20T09:37:20.104Z,1017.44
2018-11-20T09:38:29.935Z,1017.48
2018-11-20T09:39:39.549Z,1017.48
2018-11-20T09:40:49.712Z,1017.41
2018-11-20T09:41:59.877Z,1017.46
2018-11-20T09:43:09.214Z,1017.43
2018-11-20T09:44:19.095Z,1017.39
2018-11-20T09:45:28.978Z,1017.37
2018-11-20T09:46:38.632Z,1017.37
2018-11-20T09:47:48.985Z,1017.32
2018-11-20T09:48:59.146Z,1017.31
2018-11-20T09:50:09.312Z,1017.24
2018-11-20T09:51:19.474Z,1017.32
2018-11-20T09:52:29.469Z,1017.27
2018-11-20T09:53:39.371Z,1017.34
2018-11-20T09:54:49.257Z,1017.22
2018-11-20T09:55:59.414Z,1017.28
2018-11-20T09:57:09.571Z,1017.27
2018-11-20T09:58:19.338Z,1017.28
2018-11-20T09:59:28.893Z,1017.2
2018-11-20T10:00:38.667Z,1017.15
2018-11-20T10:01:48.274Z,1017.08
2018-11-20T10:02:58.939Z,1017.02
2018-11-20T10:04:09.160Z,1017.07
2018-11-20T10:05:18.504Z,1017.09
2018-11-20T10:06:28.387Z,1017.02
2018-11-20T10:07:38.004Z,1016.95
2018-11-20T10:08:47.418Z,1016.91
2018-11-20T10:09:57.811Z,1016.91
2018-11-20T10:11:07.972Z,1016.9
2018-11-20T10:12:18.126Z,1016.92
2018-11-20T10:13:27.743Z,1016.8
2018-11-20T10:14:37.756Z,1016.79
2018-11-20T10:15:47.776Z,1016.77
2018-11-20T10:16:57.656Z,1016.82
2018-11-20T10:18:07.529Z,1016.88
2018-11-20T10:19:16.871Z,1016.78
2018-11-20T10:20:26.486Z,1016.86
2018-11-20T10:21:35.602Z,1016.74
2018-11-20T10:22:46.596Z,1016.87
2018-11-20T10:23:56.210Z,1016.81
2018-11-20T10:25:06.017Z,1016.86
2018-11-20T10:26:16.272Z,1016.78
2018-11-20T10:27:26.829Z,1016.75
2018-11-20T10:28:36.177Z,1016.75
2018-11-20T10:29:46.338Z,1016.72
2018-11-20T10:30:55.952Z,1016.68
2018-11-20T10:32:05.011Z,1016.7
2018-11-20T10:33:14.622Z,1016.66
2018-11-20T10:34:24.801Z,1016.58
2018-11-20T10:35:34.723Z,1016.66
2018-11-20T10:36:45.111Z,1016.6
2018-11-20T10:37:54.447Z,1016.63
2018-11-20T10:39:04.608Z,1016.68
2018-11-20T10:40:14.260Z,1016.66
2018-11-20T10:41:24.640Z,1016.61
2018-11-20T10:42:33.975Z,1016.67
2018-11-20T10:43:44.126Z,1016.69
2018-11-20T10:44:53.736Z,1016.65
2018-11-20T10:46:03.964Z,1016.59
2018-11-20T10:47:14.030Z,1016.55
2018-11-20T10:48:23.649Z,1016.59
2018-11-20T10:49:33.269Z,1016.66
2018-11-20T10:50:42.609Z,1016.54
2018-11-20T10:51:52.771Z,1016.58
2018-11-20T10:53:02.384Z,1016.57
2018-11-20T10:54:11.993Z,1016.5
2018-11-20T10:55:21.327Z,1016.46
2018-11-20T10:56:31.485Z,1016.45
2018-11-20T10:57:41.363Z,1016.37
2018-11-20T10:58:51.249Z,1016.43
2018-11-20T11:00:01.413Z,1016.33
2018-11-20T11:01:11.029Z,1016.35
2018-11-20T11:02:20.644Z,1016.34
2018-11-20T11:03:30.251Z,1016.3
2018-11-20T11:04:40.430Z,1016.36
2018-11-20T11:05:50.848Z,1016.3
2018-11-20T11:07:00.556Z,1016.36
2018-11-20T11:08:13.157Z,1016.23
2018-11-20T11:09:22.558Z,1016.27
2018-11-20T11:10:32.722Z,1016.27
2018-11-20T11:11:42.461Z,1016.25
2018-11-20T11:12:52.638Z,1016.33
2018-11-20T11:14:02.525Z,1016.29
2018-11-20T11:15:11.593Z,1016.3
2018-11-20T11:16:21.478Z,1016.25
2018-11-20T11:17:31.084Z,1016.24
2018-11-20T11:18:41.244Z,1016.23
2018-11-20T11:19:51.143Z,1016.27
2018-11-20T11:21:00.539Z,1016.29
2018-11-20T11:22:11.075Z,1016.24
2018-11-20T11:23:20.972Z,1016.27
2018-11-20T11:24:30.854Z,1016.18
2018-11-20T11:25:41.013Z,1016.19
2018-11-20T11:26:51.172Z,1016.15
2018-11-20T11:28:00.799Z,1016.12
2018-11-20T11:29:11.522Z,1016.16
2018-11-20T11:30:21.460Z,1016.13
2018-11-20T11:31:31.618Z,1016.06
2018-11-20T11:32:41.232Z,1016.07
2018-11-20T11:33:51.126Z,1016.18
2018-11-20T11:35:01.445Z,1016.05
2018-11-20T11:36:11.346Z,1016
2018-11-20T11:37:20.415Z,1016.1
2018-11-20T11:38:30.319Z,1016.02
2018-11-20T11:39:40.474Z,1016.09
2018-11-20T11:40:50.368Z,1016.09
2018-11-20T11:41:59.973Z,1016.08
2018-11-20T11:43:09.580Z,1016.01
2018-11-20T11:44:19.466Z,1016.09
2018-11-20T11:45:28.804Z,1016.05
2018-11-20T11:46:38.694Z,1016.04
2018-11-20T11:47:48.307Z,1015.98
2018-11-20T11:48:57.928Z,1015.97
2018-11-20T11:50:07.541Z,1015.89
2018-11-20T11:51:17.425Z,1015.92
2018-11-20T11:52:30.674Z,1015.97
2018-11-20T11:53:40.835Z,1015.9
2018-11-20T11:54:50.770Z,1016.02
2018-11-20T11:56:01.376Z,1015.88
2018-11-20T11:57:11.260Z,1015.91
2018-11-20T11:58:21.501Z,1015.91
2018-11-20T11:59:31.470Z,1015.76
2018-11-20T12:00:41.352Z,1015.92
2018-11-20T12:05:18.233Z,1015.85
2018-11-20T12:06:28.120Z,1015.78
2018-11-20T12:07:38.277Z,1015.81
2018-11-20T12:08:52.381Z,1015.81
2018-11-20T12:10:02.260Z,1015.79
2018-11-20T12:11:12.427Z,1015.73
2018-11-20T12:12:22.585Z,1015.72
2018-11-20T12:13:32.468Z,1015.72
2018-11-20T12:14:42.355Z,1015.85
2018-11-20T12:15:56.751Z,1015.74
2018-11-20T12:17:06.919Z,1015.73
2018-11-20T12:18:17.093Z,1015.73
2018-11-20T12:19:27.261Z,1015.69
2018-11-20T12:20:37.420Z,1015.68
2018-11-20T12:21:51.248Z,1015.68
2018-11-20T12:23:01.132Z,1015.62
2018-11-20T12:24:11.291Z,1015.71
2018-11-20T12:25:21.539Z,1015.62
2018-11-20T12:26:31.460Z,1015.58
2018-11-20T12:27:41.636Z,1015.55
2018-11-20T12:28:53.002Z,1015.57
2018-11-20T12:30:03.180Z,1015.48
2018-11-20T12:31:15.962Z,1015.4
2018-11-20T12:32:26.630Z,1015.4
2018-11-20T12:33:36.888Z,1015.37
2018-11-20T12:34:47.633Z,1015.39
2018-11-20T12:36:01.834Z,1015.4
2018-11-20T12:37:14.584Z,1015.48
2018-11-20T12:38:27.120Z,1015.44
2018-11-20T12:39:38.361Z,1015.37
2018-11-20T12:40:50.895Z,1015.4
2018-11-20T12:42:02.511Z,1015.4
2018-11-20T12:43:12.945Z,1015.42
2018-11-20T12:44:25.590Z,1015.4
2018-11-20T12:45:38.615Z,1015.38
2018-11-20T12:46:50.860Z,1015.38
2018-11-20T12:48:01.717Z,1015.34
2018-11-20T12:49:13.922Z,1015.36
2018-11-20T12:50:28.066Z,1015.41
2018-11-20T12:51:38.331Z,1015.33
2018-11-20T12:52:49.451Z,1015.36
2018-11-20T12:54:02.790Z,1015.3
2018-11-20T12:55:15.534Z,1015.35
2018-11-20T12:56:25.483Z,1015.33
2018-11-20T12:57:36.915Z,1015.28
2018-11-20T12:58:47.314Z,1015.34
2018-11-20T12:59:59.437Z,1015.36
2018-11-20T13:01:09.619Z,1015.34
2018-11-20T13:02:20.400Z,1015.35
2018-11-20T13:03:30.828Z,1015.37
2018-11-20T13:04:40.803Z,1015.28
2018-11-20T13:05:52.918Z,1015.34
2018-11-20T13:07:05.158Z,1015.36
2018-11-20T13:08:13.007Z,1015.33
2018-11-20T13:09:22.887Z,1015.34
2018-11-20T13:10:32.769Z,1015.38
2018-11-20T13:11:42.929Z,1015.3
2018-11-20T13:12:52.831Z,1015.28
2018-11-20T13:14:03.947Z,1015.28
2018-11-20T13:15:14.122Z,1015.3
2018-11-20T13:16:24.124Z,1015.21
2018-11-20T13:17:35.861Z,1015.23
2018-11-20T13:18:54.124Z,1015.25
2018-11-20T13:20:05.933Z,1015.21
2018-11-20T13:21:18.419Z,1015.21
2018-11-20T13:22:28.635Z,1015.19
2018-11-20T13:23:42.834Z,1015.13
2018-11-20T13:24:57.889Z,1015.18
2018-11-20T13:26:10.077Z,1015.14
2018-11-20T13:27:19.964Z,1015.04
2018-11-20T13:28:29.581Z,1015.13
2018-11-20T13:29:39.743Z,1015.02
2018-11-20T13:30:49.906Z,1015.08
2018-11-20T13:32:00.073Z,1015.07
2018-11-20T13:33:09.961Z,1015.07
2018-11-20T13:34:27.193Z,1015.07
2018-11-20T13:35:38.448Z,1015.1
2018-11-20T13:36:49.124Z,1015.01
2018-11-20T13:38:00.843Z,1015
2018-11-20T13:39:13.828Z,1015.02
2018-11-20T13:40:23.816Z,1015.01
2018-11-20T13:41:33.706Z,1014.99
2018-11-20T13:42:43.320Z,1014.97
2018-11-20T13:43:54.804Z,1014.94
2018-11-20T13:45:04.995Z,1014.93
2018-11-20T13:46:21.158Z,1014.94
2018-11-20T13:47:32.451Z,1014.97
2018-11-20T13:48:42.068Z,1014.96
2018-11-20T13:49:54.553Z,1014.99
2018-11-20T13:51:04.716Z,1014.92
2018-11-20T13:52:14.652Z,1014.96
2018-11-20T13:53:24.853Z,1014.97
2018-11-20T13:54:34.814Z,1014.96
2018-11-20T13:55:44.696Z,1014.99
2018-11-20T13:56:54.861Z,1014.96
2018-11-20T13:58:05.072Z,1014.94
2018-11-20T13:59:15.235Z,1014.96
2018-11-20T14:00:25.395Z,1014.91
2018-11-20T14:01:35.566Z,1014.9
2018-11-20T14:02:45.454Z,1014.89
2018-11-20T14:03:55.665Z,1014.83
2018-11-20T14:05:05.702Z,1014.84
2018-11-20T14:06:15.596Z,1014.91
2018-11-20T14:07:25.477Z,1014.86
2018-11-20T14:08:35.363Z,1014.85
2018-11-20T14:09:45.027Z,1014.87
2018-11-20T14:10:54.916Z,1014.87
2018-11-20T14:12:04.816Z,1014.84
2018-11-20T14:13:14.995Z,1014.92
2018-11-20T14:14:24.910Z,1014.89